createdAt,value
2018-05-07T00:00:49.437Z,15.80
2018-05-07T00:03:22.948Z,15.79
2018-05-07T00:05:56.741Z,15.83
2018-05-07T00:08:30.164Z,15.80
2018-05-07T00:11:03.952Z,15.84
2018-05-07T00:13:37.453Z,15.80
2018-05-07T00:16:10.965Z,15.76
2018-05-07T00:18:44.772Z,15.70
2018-05-07T00:21:18.536Z,15.78
2018-05-07T00:23:52.228Z,15.71
2018-05-07T00:26:25.901Z,15.62
2018-05-07T00:28:59.647Z,15.42
2018-05-07T00:31:33.252Z,15.47
2018-05-07T00:34:06.823Z,15.51
2018-05-07T00:36:40.336Z,15.51
2018-05-07T00:39:13.894Z,15.46
2018-05-07T00:41:47.478Z,15.47
2018-05-07T00:44:20.936Z,15.46
2018-05-07T00:46:54.428Z,15.59
2018-05-07T00:49:28.040Z,15.61
2018-05-07T00:52:01.648Z,15.55
2018-05-07T00:54:47.364Z,15.41
2018-05-07T00:57:21.125Z,15.46
2018-05-07T00:59:54.672Z,15.57
2018-05-07T01:02:28.194Z,15.55
2018-05-07T01:05:01.772Z,15.63
2018-05-07T01:07:35.295Z,15.59
2018-05-07T01:10:08.997Z,15.47
2018-05-07T01:12:42.482Z,15.51
2018-05-07T01:15:16.147Z,15.59
2018-05-07T01:17:49.684Z,15.56
2018-05-07T01:20:23.284Z,15.64
2018-05-07T01:22:57.032Z,15.62
2018-05-07T01:25:30.584Z,15.59
2018-05-07T01:28:04.227Z,15.51
2018-05-07T01:30:37.828Z,15.52
2018-05-07T01:33:11.568Z,15.49
2018-05-07T01:35:45.148Z,15.45
2018-05-07T01:38:18.903Z,15.37
2018-05-07T01:40:52.524Z,15.28
2018-05-07T01:43:26.136Z,15.28
2018-05-07T01:45:59.952Z,15.24
2018-05-07T01:48:33.558Z,15.20
2018-05-07T01:51:07.284Z,15.05
2018-05-07T01:53:40.839Z,15.10
2018-05-07T01:56:14.615Z,15.16
2018-05-07T01:58:48.224Z,15.16
2018-05-07T02:01:22.010Z,15.22
2018-05-07T02:03:55.576Z,15.11
2018-05-07T02:06:29.255Z,15.06
2018-05-07T02:09:02.992Z,15.15
2018-05-07T02:11:36.696Z,15.15
2018-05-07T02:14:10.303Z,15.17
2018-05-07T02:16:43.820Z,15.21
2018-05-07T02:19:17.338Z,15.13
2018-05-07T02:21:50.900Z,15.09
2018-05-07T02:24:24.478Z,15.05
2018-05-07T02:26:58.792Z,15.02
2018-05-07T02:29:32.300Z,15.01
2018-05-07T02:32:05.949Z,15.06
2018-05-07T02:34:39.473Z,15.01
2018-05-07T02:37:13.167Z,15.02
2018-05-07T02:39:46.720Z,15.05
2018-05-07T02:42:20.292Z,15.06
2018-05-07T02:44:54.040Z,15.04
2018-05-07T02:47:27.676Z,14.97
2018-05-07T02:50:01.285Z,14.91
2018-05-07T02:52:35.142Z,15.07
2018-05-07T02:55:09.210Z,15.00
2018-05-07T02:57:42.783Z,15.02
2018-05-07T03:00:16.300Z,15.07
2018-05-07T03:02:49.899Z,15.00
2018-05-07T03:05:23.498Z,14.90
2018-05-07T03:07:57.636Z,14.87
2018-05-07T03:10:31.533Z,14.81
2018-05-07T03:13:05.214Z,14.84
2018-05-07T03:15:38.802Z,14.75
2018-05-07T03:18:12.347Z,14.74
2018-05-07T03:20:45.869Z,14.66
2018-05-07T03:23:19.647Z,14.66
2018-05-07T03:25:53.287Z,14.70
2018-05-07T03:28:27.520Z,14.71
2018-05-07T03:31:01.197Z,14.72
2018-05-07T03:33:34.707Z,14.71
2018-05-07T03:36:08.355Z,14.53
2018-05-07T03:38:42.052Z,14.58
2018-05-07T03:41:15.811Z,14.45
2018-05-07T03:43:49.326Z,14.42
2018-05-07T03:46:22.923Z,14.55
2018-05-07T03:48:56.599Z,14.49
2018-05-07T03:51:30.296Z,14.47
2018-05-07T03:54:04.153Z,14.49
2018-05-07T03:56:37.864Z,14.39
2018-05-07T03:59:11.644Z,14.40
2018-05-07T04:01:45.516Z,14.36
2018-05-07T04:04:20.027Z,14.40
2018-05-07T04:06:53.701Z,14.55
2018-05-07T04:09:27.327Z,14.47
2018-05-07T04:12:01.256Z,14.51
2018-05-07T04:14:35.004Z,14.50
2018-05-07T04:17:26.460Z,14.50
2018-05-07T04:20:12.220Z,14.58
2018-05-07T04:22:57.879Z,14.52
2018-05-07T04:25:31.541Z,14.48
2018-05-07T04:28:05.228Z,14.44
2018-05-07T04:30:38.916Z,14.49
2018-05-07T04:33:12.589Z,14.55
2018-05-07T04:35:46.194Z,14.55
2018-05-07T04:38:19.791Z,14.54
2018-05-07T04:40:53.517Z,14.56
2018-05-07T04:43:27.204Z,14.59
2018-05-07T04:46:00.883Z,14.63
2018-05-07T04:48:34.401Z,14.69
2018-05-07T04:51:07.998Z,14.75
2018-05-07T04:53:41.721Z,14.72
2018-05-07T04:56:15.567Z,14.73
2018-05-07T04:58:49.301Z,14.81
2018-05-07T05:01:22.925Z,14.88
2018-05-07T05:03:56.676Z,14.93
2018-05-07T05:06:30.357Z,14.99
2018-05-07T05:09:03.950Z,15.05
2018-05-07T05:11:37.705Z,15.13
2018-05-07T05:14:11.494Z,15.15
2018-05-07T05:16:45.282Z,15.24
2018-05-07T05:19:18.919Z,15.28
2018-05-07T05:21:52.569Z,15.38
2018-05-07T05:24:26.280Z,15.52
2018-05-07T05:26:59.985Z,15.58
2018-05-07T05:29:33.824Z,15.67
2018-05-07T05:32:07.641Z,15.83
2018-05-07T05:34:41.826Z,15.93
2018-05-07T05:37:15.761Z,16.01
2018-05-07T05:39:49.325Z,16.14
2018-05-07T05:42:23.158Z,16.27
2018-05-07T05:44:56.845Z,16.39
2018-05-07T05:47:30.395Z,16.49
2018-05-07T05:50:04.224Z,16.62
2018-05-07T05:52:37.700Z,16.70
2018-05-07T05:55:11.445Z,16.87
2018-05-07T05:57:45.141Z,16.99
2018-05-07T06:00:18.812Z,17.16
2018-05-07T06:02:52.382Z,17.28
2018-05-07T06:05:26.218Z,17.48
2018-05-07T06:07:59.850Z,17.82
2018-05-07T06:10:33.480Z,18.78
2018-05-07T06:13:07.336Z,20.49
2018-05-07T06:15:41.128Z,21.64
2018-05-07T06:18:14.695Z,21.97
2018-05-07T06:20:48.520Z,22.97
2018-05-07T06:23:22.268Z,24.68
2018-05-07T06:25:56.054Z,24.98
2018-05-07T06:28:29.758Z,25.80
2018-05-07T06:31:03.318Z,25.86
2018-05-07T06:33:37.007Z,25.84
2018-05-07T06:36:10.758Z,25.50
2018-05-07T06:38:44.611Z,26.47
2018-05-07T06:41:18.307Z,26.11
2018-05-07T06:43:52.413Z,25.69
2018-05-07T06:46:26.152Z,25.61
2018-05-07T06:48:59.884Z,25.21
2018-05-07T06:51:33.566Z,25.75
2018-05-07T06:54:07.097Z,26.14
2018-05-07T06:56:40.731Z,25.87
2018-05-07T06:59:14.595Z,26.24
2018-05-07T07:01:48.227Z,26.44
2018-05-07T07:04:21.839Z,26.71
2018-05-07T07:06:55.528Z,27.70
2018-05-07T07:09:29.242Z,28.31
2018-05-07T07:12:02.812Z,28.26
2018-05-07T07:14:36.633Z,27.13
2018-05-07T07:17:10.390Z,27.54
2018-05-07T07:19:43.999Z,28.54
2018-05-07T07:22:17.574Z,28.51
2018-05-07T07:24:51.342Z,29.16
2018-05-07T07:27:24.861Z,28.95
2018-05-07T07:29:58.506Z,29.63
2018-05-07T07:32:32.011Z,29.55
2018-05-07T07:35:05.736Z,29.34
2018-05-07T07:37:39.302Z,29.07
2018-05-07T07:40:12.842Z,28.54
2018-05-07T07:42:46.625Z,28.85
2018-05-07T07:45:20.398Z,29.88
2018-05-07T07:47:53.941Z,28.95
2018-05-07T07:50:27.609Z,29.51
2018-05-07T07:53:01.185Z,28.66
2018-05-07T07:55:34.981Z,28.21
2018-05-07T07:58:08.468Z,28.83
2018-05-07T08:00:42.131Z,28.98
2018-05-07T08:03:15.716Z,30.51
2018-05-07T08:05:49.341Z,31.58
2018-05-07T08:08:23.264Z,31.04
2018-05-07T08:10:57.077Z,28.54
2018-05-07T08:13:30.744Z,29.60
2018-05-07T08:16:04.405Z,31.47
2018-05-07T08:18:38.049Z,31.97
2018-05-07T08:21:11.863Z,31.53
2018-05-07T08:23:45.572Z,31.67
2018-05-07T08:26:19.338Z,32.07
2018-05-07T08:28:53.144Z,31.60
2018-05-07T08:31:26.702Z,31.65
2018-05-07T08:34:00.461Z,30.38
2018-05-07T08:36:34.222Z,30.72
2018-05-07T08:39:07.833Z,30.70
2018-05-07T08:41:41.634Z,32.50
2018-05-07T08:44:15.292Z,33.15
2018-05-07T08:46:48.864Z,31.86
2018-05-07T08:49:22.457Z,32.06
2018-05-07T08:51:56.186Z,32.69
2018-05-07T08:54:29.997Z,31.55
2018-05-07T08:57:03.684Z,31.77
2018-05-07T08:59:37.422Z,32.40
2018-05-07T09:02:11.159Z,30.75
2018-05-07T09:04:44.899Z,31.32
2018-05-07T09:07:18.462Z,32.29
2018-05-07T09:09:52.254Z,31.77
2018-05-07T09:12:25.859Z,33.08
2018-05-07T09:14:59.524Z,30.93
2018-05-07T09:17:33.308Z,30.99
2018-05-07T09:20:06.970Z,34.55
2018-05-07T09:22:40.570Z,33.16
2018-05-07T09:25:14.309Z,33.93
2018-05-07T09:27:47.973Z,34.71
2018-05-07T09:30:21.588Z,32.72
2018-05-07T09:32:55.313Z,33.43
2018-05-07T09:35:29.135Z,33.61
2018-05-07T09:38:02.782Z,32.56
2018-05-07T09:40:36.382Z,33.41
2018-05-07T09:43:09.950Z,32.40
2018-05-07T09:45:43.731Z,31.50
2018-05-07T09:48:17.361Z,32.87
2018-05-07T09:50:51.028Z,33.71
2018-05-07T09:53:24.629Z,34.15
2018-05-07T09:55:58.202Z,33.41
2018-05-07T09:58:31.873Z,33.39
2018-05-07T10:01:05.600Z,33.84
2018-05-07T10:03:39.316Z,33.98
2018-05-07T10:06:13.033Z,34.33
2018-05-07T10:08:46.733Z,34.44
2018-05-07T10:11:20.338Z,33.24
2018-05-07T10:13:54.150Z,29.40
2018-05-07T10:16:27.877Z,32.42
2018-05-07T10:19:01.648Z,33.16
2018-05-07T10:21:35.209Z,33.38
2018-05-07T10:24:08.943Z,32.05
2018-05-07T10:26:42.722Z,32.29
2018-05-07T10:29:16.430Z,35.71
2018-05-07T10:31:50.020Z,35.51
2018-05-07T10:34:23.693Z,35.57
2018-05-07T10:36:57.226Z,34.59
2018-05-07T10:39:31.028Z,34.16
2018-05-07T10:42:04.693Z,33.67
2018-05-07T10:44:38.684Z,34.45
2018-05-07T10:47:12.198Z,35.23
2018-05-07T10:49:45.943Z,35.17
2018-05-07T10:52:19.589Z,34.60
2018-05-07T10:54:53.336Z,34.85
2018-05-07T10:57:27.014Z,34.41
2018-05-07T11:00:00.737Z,34.84
2018-05-07T11:02:34.377Z,33.87
2018-05-07T11:05:08.106Z,35.37
2018-05-07T11:07:41.827Z,36.56
2018-05-07T11:10:15.353Z,36.64
2018-05-07T11:12:49.332Z,36.57
2018-05-07T11:15:23.029Z,34.46
2018-05-07T11:17:57.042Z,33.50
2018-05-07T11:20:30.620Z,35.34
2018-05-07T11:23:04.385Z,35.12
2018-05-07T11:25:38.281Z,34.25
2018-05-07T11:28:11.985Z,33.39
2018-05-07T11:30:45.694Z,34.34
2018-05-07T11:33:19.561Z,31.56
2018-05-07T11:35:53.685Z,31.19
2018-05-07T11:38:27.398Z,31.29
2018-05-07T11:41:01.008Z,32.44
2018-05-07T11:43:34.685Z,31.48
2018-05-07T11:46:08.249Z,31.95
2018-05-07T11:48:41.918Z,32.89
2018-05-07T11:51:15.418Z,33.01
2018-05-07T11:53:49.141Z,31.74
2018-05-07T11:56:22.717Z,31.14
2018-05-07T11:58:56.276Z,29.32
2018-05-07T12:01:30.990Z,28.97
2018-05-07T12:04:04.717Z,27.41
2018-05-07T12:06:38.360Z,26.91
2018-05-07T12:09:11.990Z,26.51
2018-05-07T12:11:45.645Z,26.33
2018-05-07T12:14:19.247Z,25.79
2018-05-07T12:16:53.086Z,26.02
2018-05-07T12:19:26.826Z,26.23
2018-05-07T12:22:00.520Z,25.87
2018-05-07T12:24:34.219Z,26.00
2018-05-07T12:27:08.190Z,26.01
2018-05-07T12:29:41.760Z,25.88
2018-05-07T12:32:15.500Z,25.23
2018-05-07T12:34:49.238Z,25.94
2018-05-07T12:37:22.849Z,26.05
2018-05-07T12:39:56.569Z,25.90
2018-05-07T12:42:30.340Z,26.01
2018-05-07T12:45:04.084Z,26.14
2018-05-07T12:47:37.696Z,26.32
2018-05-07T12:50:11.449Z,26.18
2018-05-07T12:52:45.153Z,26.04
2018-05-07T12:55:18.824Z,25.97
2018-05-07T12:57:53.369Z,26.17
2018-05-07T13:00:27.166Z,26.13
2018-05-07T13:03:00.876Z,26.17
2018-05-07T13:05:34.618Z,26.12
2018-05-07T13:08:08.352Z,26.00
2018-05-07T13:10:42.101Z,26.05
2018-05-07T13:13:15.694Z,26.18
2018-05-07T13:15:49.473Z,26.26
2018-05-07T13:18:23.295Z,26.07
2018-05-07T13:20:57.055Z,26.18
2018-05-07T13:23:30.687Z,26.12
2018-05-07T13:26:04.369Z,26.15
2018-05-07T13:28:37.986Z,25.87
2018-05-07T13:31:11.740Z,26.04
2018-05-07T13:33:45.409Z,26.35
2018-05-07T13:36:19.061Z,26.20
2018-05-07T13:38:52.673Z,26.14
2018-05-07T13:41:26.349Z,26.44
2018-05-07T13:44:00.139Z,26.47
2018-05-07T13:46:33.721Z,26.50
2018-05-07T13:49:07.484Z,26.56
2018-05-07T13:51:41.073Z,26.41
2018-05-07T13:54:15.053Z,26.40
2018-05-07T13:56:48.684Z,26.52
2018-05-07T13:59:22.379Z,26.66
2018-05-07T14:01:56.078Z,26.81
2018-05-07T14:04:29.748Z,27.01
2018-05-07T14:07:03.711Z,27.24
2018-05-07T14:09:37.421Z,27.15
2018-05-07T14:12:10.962Z,27.20
2018-05-07T14:14:44.684Z,27.52
2018-05-07T14:17:18.406Z,28.39
2018-05-07T14:19:52.083Z,29.42
2018-05-07T14:22:25.843Z,30.09
2018-05-07T14:24:59.496Z,31.17
2018-05-07T14:27:33.227Z,32.41
2018-05-07T14:30:07.220Z,33.07
2018-05-07T14:32:40.904Z,33.19
2018-05-07T14:35:14.464Z,33.51
2018-05-07T14:37:48.007Z,33.51
2018-05-07T14:40:21.817Z,34.38
2018-05-07T14:42:55.492Z,31.14
2018-05-07T14:45:29.211Z,33.02
2018-05-07T14:48:03.100Z,33.93
2018-05-07T14:50:36.801Z,34.46
2018-05-07T14:53:10.429Z,33.17
2018-05-07T14:55:44.172Z,33.81
2018-05-07T14:58:17.819Z,32.94
2018-05-07T15:00:51.635Z,32.86
2018-05-07T15:03:25.149Z,32.23
2018-05-07T15:05:58.905Z,32.97
2018-05-07T15:08:32.581Z,33.90
2018-05-07T15:11:06.392Z,34.46
2018-05-07T15:13:39.957Z,32.99
2018-05-07T15:16:13.745Z,33.16
2018-05-07T15:18:47.465Z,33.49
2018-05-07T15:21:21.251Z,33.43
2018-05-07T15:23:54.837Z,33.61
2018-05-07T15:26:28.504Z,33.47
2018-05-07T15:29:02.141Z,33.40
2018-05-07T15:31:35.724Z,32.66
2018-05-07T15:34:09.678Z,32.32
2018-05-07T15:36:43.176Z,32.17
2018-05-07T15:39:17.137Z,30.69
2018-05-07T15:41:50.690Z,30.11
2018-05-07T15:44:24.483Z,29.94
2018-05-07T15:46:58.204Z,28.68
2018-05-07T15:49:31.817Z,28.37
2018-05-07T15:52:05.587Z,28.39
2018-05-07T15:54:39.270Z,27.73
2018-05-07T15:57:13.394Z,27.74
2018-05-07T15:59:49.702Z,27.65
2018-05-07T16:02:23.376Z,27.37
2018-05-07T16:07:37.068Z,26.89
2018-05-07T16:10:10.649Z,26.71
2018-05-07T16:12:44.357Z,26.53
2018-05-07T16:15:17.887Z,26.58
2018-05-07T16:17:51.453Z,26.41
2018-05-07T16:20:25.144Z,26.25
2018-05-07T16:22:58.704Z,26.08
2018-05-07T16:25:32.282Z,25.97
2018-05-07T16:28:06.054Z,25.80
2018-05-07T16:30:39.571Z,25.78
2018-05-07T16:33:13.309Z,25.78
2018-05-07T16:35:47.387Z,25.68
2018-05-07T16:38:20.991Z,25.60
2018-05-07T16:40:54.569Z,25.55
2018-05-07T16:43:28.300Z,25.44
2018-05-07T16:46:01.963Z,25.27
2018-05-07T16:48:35.717Z,25.31
2018-05-07T16:51:09.333Z,25.20
2018-05-07T16:53:42.911Z,25.14
2018-05-07T16:56:16.525Z,25.02
2018-05-07T16:58:50.272Z,25.08
2018-05-07T17:01:24.003Z,25.01
2018-05-07T17:03:57.792Z,24.94
2018-05-07T17:06:31.456Z,24.81
2018-05-07T17:09:05.200Z,24.77
2018-05-07T17:11:38.913Z,24.67
2018-05-07T17:14:12.653Z,24.61
2018-05-07T17:16:46.360Z,24.60
2018-05-07T17:19:20.038Z,24.57
2018-05-07T17:21:53.791Z,24.54
2018-05-07T17:24:27.524Z,24.43
2018-05-07T17:27:01.210Z,24.41
2018-05-07T17:29:34.933Z,24.40
2018-05-07T17:32:08.588Z,24.29
2018-05-07T17:34:42.212Z,24.34
2018-05-07T17:37:16.035Z,24.30
2018-05-07T17:39:49.648Z,24.23
2018-05-07T17:42:23.274Z,24.22
2018-05-07T17:45:08.760Z,24.18
2018-05-07T17:47:54.289Z,24.10
2018-05-07T17:50:28.011Z,24.00
2018-05-07T17:53:01.555Z,23.95
2018-05-07T17:55:35.297Z,23.91
2018-05-07T17:58:09.063Z,23.83
2018-05-07T18:00:42.650Z,23.66
2018-05-07T18:03:16.272Z,23.56
2018-05-07T18:05:49.836Z,23.43
2018-05-07T18:08:23.734Z,23.34
2018-05-07T18:10:57.413Z,23.26
2018-05-07T18:13:31.448Z,23.14
2018-05-07T18:16:04.963Z,22.97
2018-05-07T18:18:38.792Z,22.84
2018-05-07T18:21:12.272Z,22.61
2018-05-07T18:23:45.871Z,22.52
2018-05-07T18:26:19.528Z,22.35
2018-05-07T18:28:53.272Z,22.34
2018-05-07T18:31:27.014Z,22.33
2018-05-07T18:34:00.770Z,22.29
2018-05-07T18:36:34.530Z,22.14
2018-05-07T18:39:08.140Z,22.19
2018-05-07T18:41:41.638Z,22.23
2018-05-07T18:44:15.171Z,22.25
2018-05-07T18:46:48.867Z,22.13
2018-05-07T18:49:22.390Z,21.97
2018-05-07T18:51:55.971Z,21.85
2018-05-07T18:54:29.707Z,21.69
2018-05-07T18:57:03.235Z,21.57
2018-05-07T18:59:36.793Z,21.47
2018-05-07T19:02:10.464Z,21.32
2018-05-07T19:04:44.000Z,21.08
2018-05-07T19:07:17.532Z,21.07
2018-05-07T19:09:51.312Z,21.03
2018-05-07T19:12:25.215Z,20.89
2018-05-07T19:14:58.863Z,20.85
2018-05-07T19:17:32.422Z,20.72
2018-05-07T19:20:06.141Z,20.64
2018-05-07T19:22:39.701Z,20.62
2018-05-07T19:25:13.478Z,20.60
2018-05-07T19:27:47.095Z,20.47
2018-05-07T19:30:20.603Z,20.38
2018-05-07T19:32:54.137Z,20.34
2018-05-07T19:35:28.040Z,20.26
2018-05-07T19:38:01.527Z,20.41
2018-05-07T19:40:35.299Z,20.55
2018-05-07T19:43:08.986Z,20.55
2018-05-07T19:45:42.510Z,20.58
2018-05-07T19:48:16.040Z,20.59
2018-05-07T19:50:49.783Z,20.44
2018-05-07T19:53:23.362Z,20.35
2018-05-07T19:55:56.944Z,20.29
2018-05-07T19:58:30.711Z,20.29
2018-05-07T20:01:04.292Z,20.14
2018-05-07T20:03:37.812Z,19.92
2018-05-07T20:06:11.560Z,19.83
2018-05-07T20:08:45.056Z,19.74
2018-05-07T20:11:18.660Z,19.69
2018-05-07T20:13:52.419Z,19.65
2018-05-07T20:16:26.188Z,19.80
2018-05-07T20:18:59.882Z,19.63
2018-05-07T20:21:33.420Z,19.77
2018-05-07T20:24:07.107Z,19.81
2018-05-07T20:26:40.523Z,19.75
2018-05-07T20:29:14.045Z,19.62
2018-05-07T20:31:47.911Z,19.51
2018-05-07T20:34:21.528Z,19.28
2018-05-07T20:36:55.853Z,19.28
2018-05-07T20:39:29.597Z,19.29
2018-05-07T20:42:03.242Z,19.22
2018-05-07T20:44:36.900Z,19.35
2018-05-07T20:47:10.769Z,19.26
2018-05-07T20:49:44.357Z,19.26
2018-05-07T20:52:18.359Z,19.13
2018-05-07T20:54:51.915Z,19.08
2018-05-07T20:57:25.677Z,19.06
2018-05-07T20:59:59.301Z,18.96
2018-05-07T21:02:32.956Z,18.91
2018-05-07T21:05:06.649Z,18.88
2018-05-07T21:07:40.227Z,18.91
2018-05-07T21:10:13.718Z,18.92
2018-05-07T21:12:47.380Z,18.85
2018-05-07T21:15:21.021Z,18.77
2018-05-07T21:17:54.600Z,18.70
2018-05-07T21:20:28.404Z,18.73
2018-05-07T21:23:02.092Z,18.72
2018-05-07T21:25:35.846Z,18.66
2018-05-07T21:28:09.448Z,18.61
2018-05-07T21:30:42.967Z,18.62
2018-05-07T21:33:16.550Z,18.69
2018-05-07T21:35:50.234Z,18.70
2018-05-07T21:38:23.740Z,18.68
2018-05-07T21:40:57.455Z,18.70
2018-05-07T21:43:31.140Z,18.75
2018-05-07T21:46:04.780Z,18.68
2018-05-07T21:48:38.500Z,18.40
2018-05-07T21:51:12.026Z,18.46
2018-05-07T21:53:45.531Z,18.38
2018-05-07T21:56:19.098Z,18.41
2018-05-07T21:58:52.651Z,18.45
2018-05-07T22:01:26.200Z,18.34
2018-05-07T22:03:59.711Z,18.19
2018-05-07T22:06:33.471Z,18.05
2018-05-07T22:09:07.437Z,18.20
2018-05-07T22:11:41.137Z,18.30
2018-05-07T22:14:14.814Z,18.28
2018-05-07T22:16:48.456Z,18.26
2018-05-07T22:19:22.043Z,18.31
2018-05-07T22:21:55.961Z,18.38
2018-05-07T22:24:29.878Z,18.30
2018-05-07T22:27:03.483Z,18.23
2018-05-07T22:29:37.082Z,18.13
2018-05-07T22:32:10.671Z,18.13
2018-05-07T22:34:44.332Z,18.21
2018-05-07T22:37:18.152Z,18.15
2018-05-07T22:39:51.776Z,18.11
2018-05-07T22:42:25.353Z,18.06
2018-05-07T22:44:58.988Z,18.01
2018-05-07T22:47:32.555Z,18.17
2018-05-07T22:50:06.152Z,18.10
2018-05-07T22:52:39.707Z,18.13
2018-05-07T22:55:20.580Z,17.94
2018-05-07T22:57:54.144Z,17.84
2018-05-07T23:00:27.656Z,17.87
2018-05-07T23:03:01.512Z,17.87
2018-05-07T23:05:35.094Z,17.88
2018-05-07T23:08:08.650Z,17.95
2018-05-07T23:10:42.691Z,17.80
2018-05-07T23:13:16.338Z,17.77
2018-05-07T23:15:49.943Z,17.87
2018-05-07T23:18:23.540Z,17.80
2018-05-07T23:20:57.260Z,17.82
2018-05-07T23:23:31.107Z,17.82
2018-05-07T23:26:04.704Z,17.91
2018-05-07T23:28:38.371Z,17.94
2018-05-07T23:31:11.859Z,17.99
2018-05-07T23:33:45.442Z,17.96
2018-05-07T23:36:19.028Z,17.96
2018-05-07T23:38:53.031Z,17.89
2018-05-07T23:41:26.522Z,17.97
2018-05-07T23:44:00.316Z,17.91
2018-05-07T23:46:34.056Z,17.77
2018-05-07T23:49:07.796Z,17.82
2018-05-07T23:51:41.502Z,17.84
2018-05-07T23:54:15.036Z,17.94
2018-05-07T23:56:48.716Z,17.80
2018-05-07T23:59:22.272Z,17.76
